Time;durP1;ratioP1;P1;durP2;ratioP2;P2;SDS_P1;SDS_P2;PMS_P1;PMS_P2;Temp;Humidity;BMP_temperature;BMP_pressure;BME280_temperature;BME280_humidity;BME280_pressure;Samples;Min_cycle;Max_cycle;Signal;HPM_P1;HPM_P2
2022/08/12 00:43:47;;;;;;;6.57;3.80;;;19.80;44.40;;;;;;6248966;23;20385;-47
2022/08/12 00:46:31;;;;;;;4.57;3.60;;;19.80;44.60;;;;;;6249392;23;20645;-47
2022/08/12 00:48:57;;;;;;;3.33;3.03;;;19.70;44.70;;;;;;6248009;23;20371;-46
2022/08/12 00:52:04;;;;;;;3.70;3.40;;;19.70;44.90;;;;;;6248962;23;20442;-47
2022/08/12 00:54:09;;;;;;;3.60;3.30;;;19.70;45.00;;;;;;6249440;23;20378;-45
2022/08/12 00:56:37;;;;;;;4.47;4.07;;;19.70;45.10;;;;;;6248869;23;20642;-45
2022/08/12 00:59:04;;;;;;;3.53;3.23;;;19.60;45.20;;;;;;6249276;23;20507;-46
2022/08/12 01:01:32;;;;;;;4.00;3.70;;;19.60;45.40;;;;;;6248977;23;20391;-47
2022/08/12 01:12:12;;;;;;;5.30;4.30;;;19.50;45.90;;;;;;6248816;23;20435;-46
2022/08/12 01:14:38;;;;;;;3.90;3.60;;;19.50;46.00;;;;;;6248127;23;20402;-49
2022/08/12 01:17:04;;;;;;;3.47;3.17;;;19.40;46.10;;;;;;6248293;23;20382;-48
2022/08/12 01:19:30;;;;;;;3.60;3.30;;;19.40;46.20;;;;;;6247183;23;20657;-47
2022/08/12 01:22:22;;;;;;;4.03;3.67;;;19.40;46.40;;;;;;6247927;23;20380;-45
2022/08/12 01:25:08;;;;;;;4.07;3.67;;;19.30;46.50;;;;;;6207319;23;20157;-45
2022/08/12 01:27:38;;;;;;;4.80;3.50;;;19.30;46.60;;;;;;6248080;23;20377;-45
2022/08/12 01:30:07;;;;;;;5.33;4.03;;;19.30;46.70;;;;;;6247363;22;20678;-46
2022/08/12 01:32:36;;;;;;;4.17;3.60;;;19.30;46.80;;;;;;6247268;23;20443;-45
2022/08/12 01:35:14;;;;;;;3.67;3.37;;;19.20;46.90;;;;;;6247867;23;20735;-45
2022/08/12 01:38:04;;;;;;;3.57;3.27;;;19.20;47.00;;;;;;6247519;23;20681;-45
2022/08/12 01:40:32;;;;;;;3.87;3.57;;;19.20;47.20;;;;;;6247269;23;20411;-46
2022/08/12 01:43:09;;;;;;;4.50;3.40;;;19.20;47.30;;;;;;6248736;23;20456;-45
2022/08/12 01:45:43;;;;;;;4.20;3.77;;;19.10;47.20;;;;;;6247623;23;20374;-47
2022/08/12 01:48:28;;;;;;;4.20;3.50;;;19.20;47.80;;;;;;6249193;23;20412;-45
2022/08/12 01:51:04;;;;;;;4.30;3.60;;;19.20;47.40;;;;;;6247064;23;20376;-47
2022/08/12 01:54:03;;;;;;;4.10;3.80;;;19.20;47.50;;;;;;6248545;23;20426;-47
2022/08/12 01:56:33;;;;;;;5.43;3.80;;;19.20;47.50;;;;;;6248914;23;20383;-44
2022/08/12 02:01:49;;;;;;;4.33;3.93;;;19.20;47.50;;;;;;6248361;23;20403;-45
2022/08/12 02:13:49;;;;;;;5.10;3.70;;;19.10;48.00;;;;;;6244433;23;20404;-45
2022/08/12 02:16:52;;;;;;;4.77;4.03;;;19.00;47.90;;;;;;6248453;23;20364;-46
2022/08/12 02:19:18;;;;;;;6.60;3.70;;;19.00;48.20;;;;;;6248741;23;20363;-44
2022/08/12 02:21:57;;;;;;;3.80;3.50;;;18.90;48.30;;;;;;6248046;23;20735;-46
2022/08/12 02:24:23;;;;;;;4.07;3.73;;;18.90;48.40;;;;;;6247617;23;20149;-44
2022/08/12 02:26:50;;;;;;;3.73;3.43;;;18.90;48.50;;;;;;6247545;23;20406;-45
2022/08/12 02:29:17;;;;;;;4.50;4.10;;;18.90;48.50;;;;;;6247777;23;20509;-46
2022/08/12 02:31:44;;;;;;;4.30;4.00;;;18.90;48.60;;;;;;6248463;23;20711;-44
2022/08/12 02:34:11;;;;;;;4.43;3.87;;;18.90;48.60;;;;;;6247937;23;20424;-45
2022/08/12 02:36:38;;;;;;;3.60;3.30;;;18.80;48.60;;;;;;6248763;23;20661;-47
2022/08/12 02:39:07;;;;;;;4.03;3.40;;;18.80;48.80;;;;;;6248260;23;20445;-46
2022/08/12 02:41:34;;;;;;;4.57;4.17;;;18.80;48.80;;;;;;6246564;23;20363;-47
2022/08/12 02:44:00;;;;;;;5.90;3.70;;;18.80;49.00;;;;;;6247328;23;20641;-47
2022/08/12 02:46:31;;;;;;;3.97;3.57;;;18.70;49.00;;;;;;6247447;23;20414;-45
2022/08/12 02:48:59;;;;;;;4.80;4.00;;;18.70;49.10;;;;;;6249619;22;20389;-45
2022/08/12 02:51:29;;;;;;;3.63;3.40;;;18.70;49.20;;;;;;6247756;23;20403;-46
2022/08/12 02:53:57;;;;;;;4.63;4.23;;;18.70;49.40;;;;;;6248224;23;20355;-48
2022/08/12 02:56:26;;;;;;;4.57;4.10;;;18.70;49.40;;;;;;6247605;23;20609;-46
2022/08/12 02:58:53;;;;;;;4.87;4.20;;;18.80;49.40;;;;;;6250251;23;20761;-46
2022/08/12 03:01:32;;;;;;;4.40;4.00;;;18.70;49.30;;;;;;6250427;23;20354;-46
2022/08/12 03:04:04;;;;;;;3.83;3.53;;;18.60;49.50;;;;;;6251063;23;20369;-45
2022/08/12 03:06:37;;;;;;;5.53;3.80;;;18.60;49.60;;;;;;6249089;23;20412;-45
2022/08/12 03:09:04;;;;;;;4.27;3.60;;;18.70;49.70;;;;;;6248977;23;20723;-45
2022/08/12 03:11:41;;;;;;;4.20;3.83;;;18.70;49.60;;;;;;6248593;23;20442;-48
2022/08/12 03:14:14;;;;;;;6.63;3.77;;;18.70;49.70;;;;;;6224596;23;20738;-45
2022/08/12 03:16:40;;;;;;;3.97;3.57;;;18.70;49.70;;;;;;6250273;23;20356;-45
2022/08/12 03:19:07;;;;;;;4.57;3.87;;;18.70;49.80;;;;;;6249337;23;20353;-46
2022/08/12 03:21:36;;;;;;;9.53;4.57;;;18.60;49.80;;;;;;6248703;23;20453;-44
2022/08/12 03:24:04;;;;;;;4.90;4.00;;;18.60;49.90;;;;;;6248639;23;20412;-45
2022/08/12 03:26:30;;;;;;;4.33;4.00;;;18.60;50.10;;;;;;6248200;23;20366;-45
2022/08/12 03:28:56;;;;;;;4.07;3.30;;;18.50;50.10;;;;;;6247403;23;20361;-44
2022/08/12 03:31:28;;;;;;;3.70;3.40;;;18.50;50.20;;;;;;6246813;23;20166;-46
2022/08/12 03:34:08;;;;;;;4.23;3.83;;;18.50;50.20;;;;;;6246976;22;20416;-45
2022/08/12 03:36:35;;;;;;;6.23;3.80;;;18.40;50.30;;;;;;6248624;23;20367;-45
2022/08/12 03:41:51;;;;;;;4.40;4.00;;;18.40;50.80;;;;;;6249448;23;20361;-46
2022/08/12 04:01:24;;;;;;;5.63;4.10;;;18.20;51.80;;;;;;6245745;23;20370;-47
2022/08/12 04:03:53;;;;;;;4.57;4.17;;;18.20;52.00;;;;;;6247335;23;20528;-45
2022/08/12 04:06:27;;;;;;;4.30;3.90;;;18.10;52.10;;;;;;6249013;23;20372;-45
2022/08/12 04:08:57;;;;;;;4.70;4.30;;;18.10;52.20;;;;;;6248455;23;20377;-45
2022/08/12 04:14:19;;;;;;;5.23;4.73;;;18.10;52.40;;;;;;6247734;23;20891;-46
2022/08/12 04:16:48;;;;;;;5.00;4.47;;;18.00;52.50;;;;;;6248293;23;20356;-44
2022/08/12 04:19:15;;;;;;;4.77;4.30;;;17.90;52.60;;;;;;6248629;23;20365;-45
2022/08/12 04:21:42;;;;;;;6.33;4.70;;;17.80;52.80;;;;;;6248537;23;20364;-44
2022/08/12 04:24:08;;;;;;;5.00;4.50;;;17.70;52.90;;;;;;6249140;23;20437;-46
2022/08/12 04:26:34;;;;;;;5.70;4.13;;;17.70;53.20;;;;;;6249171;23;20655;-45
2022/08/12 04:29:00;;;;;;;6.20;4.43;;;17.70;53.30;;;;;;6249372;23;20370;-49
2022/08/12 04:31:36;;;;;;;5.70;4.50;;;17.70;53.30;;;;;;6249437;23;20406;-44
2022/08/12 04:34:03;;;;;;;4.97;4.50;;;17.70;53.20;;;;;;6249327;23;20516;-46
2022/08/12 04:36:29;;;;;;;5.07;4.57;;;17.70;53.30;;;;;;6249007;23;20406;-44
2022/08/12 04:38:57;;;;;;;4.40;4.00;;;17.80;53.40;;;;;;6249121;23;20353;-45
2022/08/12 04:41:23;;;;;;;4.80;4.40;;;17.80;53.30;;;;;;6249330;23;20382;-44
2022/08/12 04:43:49;;;;;;;4.90;4.50;;;17.80;53.20;;;;;;6250930;22;20653;-44
2022/08/12 04:46:15;;;;;;;5.63;5.13;;;17.90;53.30;;;;;;6248824;23;20382;-44
2022/08/12 04:48:41;;;;;;;5.73;4.50;;;17.80;53.20;;;;;;6249606;23;20163;-44
2022/08/12 04:51:07;;;;;;;6.33;5.30;;;17.90;53.30;;;;;;6248360;23;20151;-48
2022/08/12 04:53:33;;;;;;;5.60;4.60;;;18.00;53.70;;;;;;6247160;23;20525;-49
2022/08/12 04:55:59;;;;;;;5.17;4.67;;;18.10;53.40;;;;;;6248342;23;20423;-47
2022/08/12 04:58:28;;;;;;;4.80;4.40;;;18.40;53.10;;;;;;6248982;23;20437;-49
2022/08/12 05:00:54;;;;;;;5.10;4.60;;;18.50;52.60;;;;;;6247046;23;20401;-49
2022/08/12 05:03:20;;;;;;;8.10;5.10;;;18.70;52.30;;;;;;6247687;23;20434;-50
2022/08/12 05:05:45;;;;;;;4.73;4.33;;;19.00;52.00;;;;;;6247305;23;20657;-51
2022/08/12 05:08:14;;;;;;;4.60;3.90;;;19.20;51.60;;;;;;6248489;23;20194;-49
2022/08/12 05:10:41;;;;;;;4.67;4.20;;;19.30;51.30;;;;;;6247580;23;20193;-52
2022/08/12 05:13:10;;;;;;;5.33;4.83;;;19.40;51.10;;;;;;6245776;23;20429;-50
2022/08/12 05:15:40;;;;;;;5.20;4.60;;;19.50;50.80;;;;;;6245872;23;20670;-56
2022/08/12 05:18:05;;;;;;;8.47;4.70;;;19.60;50.60;;;;;;6248424;23;20857;-50
2022/08/12 05:20:32;;;;;;;5.70;5.00;;;19.60;50.40;;;;;;6246369;23;20365;-50
2022/08/12 05:23:06;;;;;;;5.20;4.80;;;19.70;50.40;;;;;;6247537;23;20155;-52
2022/08/12 05:25:31;;;;;;;5.60;4.80;;;19.80;50.30;;;;;;6247866;23;20360;-53
2022/08/12 05:27:58;;;;;;;5.40;4.90;;;19.70;50.50;;;;;;6247868;23;20416;-54
2022/08/12 05:30:24;;;;;;;6.50;4.63;;;19.70;50.50;;;;;;6246875;23;20138;-52
2022/08/12 05:32:49;;;;;;;4.63;4.23;;;19.70;50.70;;;;;;6246141;23;20902;-52
2022/08/12 05:35:15;;;;;;;5.40;4.77;;;19.70;50.70;;;;;;6247689;23;20137;-52
2022/08/12 05:37:41;;;;;;;4.53;4.13;;;19.60;50.70;;;;;;6247715;23;20155;-51
2022/08/12 05:40:07;;;;;;;4.93;4.47;;;19.70;50.80;;;;;;6248116;23;20233;-50
2022/08/12 05:42:33;;;;;;;9.50;4.30;;;19.70;50.80;;;;;;6248533;22;20202;-51
2022/08/12 05:44:59;;;;;;;4.73;4.33;;;19.80;50.80;;;;;;6248076;23;20368;-52
2022/08/12 05:47:24;;;;;;;5.73;5.13;;;19.80;50.70;;;;;;6246917;23;20464;-50
2022/08/12 05:49:50;;;;;;;5.77;5.17;;;19.80;50.60;;;;;;6245889;23;20362;-50
2022/08/12 05:52:16;;;;;;;5.53;4.80;;;19.90;50.60;;;;;;6246792;23;20181;-52
2022/08/12 05:54:43;;;;;;;5.97;5.47;;;19.90;50.70;;;;;;6248684;23;20221;-52
2022/08/12 05:57:11;;;;;;;5.50;4.27;;;19.80;50.50;;;;;;6246690;23;20236;-51
2022/08/12 05:59:37;;;;;;;7.70;4.70;;;19.80;50.50;;;;;;6245869;23;20362;-47
2022/08/12 06:02:06;;;;;;;6.53;4.80;;;19.90;50.40;;;;;;6245595;23;20391;-49
2022/08/12 06:04:32;;;;;;;6.23;5.30;;;20.00;50.30;;;;;;6247686;23;20146;-49
2022/08/12 06:07:00;;;;;;;5.00;4.60;;;20.10;50.20;;;;;;6245959;23;20386;-52
2022/08/12 06:09:29;;;;;;;4.90;4.30;;;20.10;50.00;;;;;;6243475;23;20862;-48
2022/08/12 06:11:55;;;;;;;4.77;3.80;;;20.20;49.90;;;;;;6242612;23;20440;-50
2022/08/12 06:14:21;;;;;;;4.87;4.20;;;20.40;49.70;;;;;;6243910;23;20369;-49
2022/08/12 06:16:48;;;;;;;6.30;4.20;;;20.50;49.50;;;;;;6241583;23;20718;-51
2022/08/12 06:19:14;;;;;;;7.70;4.90;;;20.60;49.40;;;;;;6243414;23;20364;-50
2022/08/12 06:21:41;;;;;;;4.37;3.97;;;20.80;49.30;;;;;;6243729;23;20366;-51
2022/08/12 06:24:07;;;;;;;5.30;3.67;;;20.80;49.00;;;;;;6244386;22;20378;-53
2022/08/12 06:26:33;;;;;;;6.20;4.20;;;20.90;48.70;;;;;;6243470;23;20353;-50
2022/08/12 06:28:59;;;;;;;4.80;3.40;;;21.00;48.60;;;;;;6245158;23;20721;-51
2022/08/12 06:31:25;;;;;;;4.50;3.73;;;21.00;48.30;;;;;;6244300;23;20457;-53
2022/08/12 06:33:52;;;;;;;4.23;3.63;;;21.10;48.10;;;;;;6246201;23;20844;-49
2022/08/12 06:36:21;;;;;;;3.73;3.43;;;21.20;48.10;;;;;;6245065;23;20355;-51
2022/08/12 06:38:47;;;;;;;4.10;3.37;;;21.30;47.80;;;;;;6246044;23;20388;-51
2022/08/12 06:43:58;;;;;;;5.77;3.30;;;21.50;47.30;;;;;;6246675;23;20803;-49
2022/08/12 06:46:26;;;;;;;4.90;4.17;;;21.60;47.10;;;;;;6244904;23;20356;-51
2022/08/12 06:48:57;;;;;;;6.10;3.80;;;21.70;46.80;;;;;;6245678;23;20395;-52
2022/08/12 06:51:27;;;;;;;4.93;3.97;;;21.70;46.90;;;;;;6247404;23;20406;-50
2022/08/12 06:53:54;;;;;;;4.13;3.73;;;21.80;46.50;;;;;;6246220;23;20442;-50
2022/08/12 06:56:20;;;;;;;3.73;3.33;;;21.90;46.80;;;;;;6243276;23;20374;-54
2022/08/12 06:58:46;;;;;;;4.00;3.70;;;22.10;46.90;;;;;;6243919;23;20453;-51
2022/08/12 07:01:12;;;;;;;3.73;3.43;;;22.20;46.20;;;;;;6244967;23;20362;-51
2022/08/12 07:03:38;;;;;;;3.87;3.57;;;22.40;46.30;;;;;;6244099;23;20158;-54
2022/08/12 07:06:09;;;;;;;3.50;3.20;;;22.50;46.00;;;;;;6245372;23;20207;-52
2022/08/12 07:08:34;;;;;;;4.30;3.33;;;22.70;45.30;;;;;;6244074;23;20382;-53
2022/08/12 07:11:03;;;;;;;3.57;3.27;;;22.70;45.30;;;;;;6243694;23;20364;-53
2022/08/12 07:13:37;;;;;;;3.70;3.30;;;22.90;45.50;;;;;;6246283;23;20156;-52
2022/08/12 07:16:04;;;;;;;7.77;3.37;;;23.00;45.50;;;;;;6245377;23;20417;-52
2022/08/12 07:18:33;;;;;;;4.37;3.50;;;23.30;45.30;;;;;;6247800;23;20407;-52
2022/08/12 07:21:02;;;;;;;4.83;3.50;;;23.40;44.50;;;;;;6247547;23;20350;-55
2022/08/12 07:23:34;;;;;;;5.40;3.43;;;23.70;44.20;;;;;;6245480;23;20388;-52
2022/08/12 07:26:04;;;;;;;4.03;3.50;;;23.80;43.70;;;;;;6246382;23;20418;-56
2022/08/12 07:28:35;;;;;;;3.93;3.63;;;23.90;43.80;;;;;;6247381;23;20401;-57
2022/08/12 07:31:07;;;;;;;5.50;3.43;;;24.00;43.50;;;;;;6247114;23;20351;-53
2022/08/12 07:33:37;;;;;;;3.83;3.43;;;24.00;42.90;;;;;;6249162;23;20514;-55
2022/08/12 07:36:05;;;;;;;4.63;3.70;;;23.90;43.30;;;;;;6248288;23;20370;-50
2022/08/12 07:38:33;;;;;;;5.10;3.90;;;24.00;43.80;;;;;;6247154;23;20396;-52
2022/08/12 07:41:02;;;;;;;3.90;3.43;;;24.30;43.20;;;;;;6248471;23;20353;-54
2022/08/12 07:43:30;;;;;;;3.47;3.17;;;24.60;43.10;;;;;;6249898;23;20374;-55
2022/08/12 07:45:56;;;;;;;3.90;3.33;;;24.80;42.50;;;;;;6248841;23;20368;-52
2022/08/12 07:48:23;;;;;;;4.20;3.57;;;24.90;42.30;;;;;;6249672;23;20412;-53
2022/08/12 07:50:49;;;;;;;4.40;3.30;;;25.20;42.20;;;;;;6249881;23;20149;-52
2022/08/12 07:53:14;;;;;;;5.13;3.43;;;25.40;41.00;;;;;;6248959;23;20449;-55
2022/08/12 07:55:40;;;;;;;3.33;3.00;;;25.40;41.10;;;;;;6247596;23;20762;-44
2022/08/12 07:58:07;;;;;;;3.87;3.40;;;25.20;40.90;;;;;;6248219;23;20402;-41
2022/08/12 08:00:34;;;;;;;4.90;3.70;;;25.10;40.90;;;;;;6248566;23;20368;-43
2022/08/12 08:03:01;;;;;;;4.40;3.43;;;25.30;41.30;;;;;;6248633;23;20397;-39
2022/08/12 08:05:50;;;;;;;4.53;3.53;;;25.60;41.00;;;;;;6247408;23;20395;-41
2022/08/12 08:08:18;;;;;;;3.63;3.33;;;25.80;40.20;;;;;;6248135;23;20442;-42
2022/08/12 08:10:46;;;;;;;5.20;3.17;;;26.10;40.60;;;;;;6249191;23;20364;-41
2022/08/12 08:13:12;;;;;;;5.70;3.50;;;26.30;40.50;;;;;;6249357;23;20435;-42
2022/08/12 08:15:40;;;;;;;3.20;2.90;;;26.50;38.80;;;;;;6247400;23;20372;-44
2022/08/12 08:18:09;;;;;;;3.47;3.17;;;26.50;38.80;;;;;;6245548;23;20391;-41
2022/08/12 08:20:40;;;;;;;4.73;3.77;;;26.50;38.90;;;;;;6246046;23;20707;-42
2022/08/12 08:23:09;;;;;;;6.53;3.50;;;26.60;39.30;;;;;;6245247;23;20397;-42
2022/08/12 08:25:37;;;;;;;3.53;3.20;;;26.70;39.50;;;;;;6248574;23;20365;-41
2022/08/12 08:28:11;;;;;;;3.10;2.73;;;27.10;39.30;;;;;;6247671;23;20394;-42
2022/08/12 08:30:41;;;;;;;3.30;3.00;;;27.40;39.10;;;;;;6246292;23;20385;-42
2022/08/12 08:33:11;;;;;;;3.73;3.00;;;27.80;38.30;;;;;;6247815;23;20432;-41
2022/08/12 08:35:38;;;;;;;3.93;3.40;;;28.00;37.80;;;;;;6248976;23;20472;-44
2022/08/12 08:38:14;;;;;;;3.47;3.17;;;28.20;36.80;;;;;;6247634;23;20377;-42
2022/08/12 08:43:28;;;;;;;7.80;3.97;;;27.60;36.60;;;;;;6246589;23;20383;-40
2022/08/12 08:45:55;;;;;;;4.00;2.83;;;27.30;37.20;;;;;;6219835;23;20862;-40
2022/08/12 08:48:22;;;;;;;4.93;3.40;;;27.10;37.70;;;;;;6244313;23;20365;-41
2022/08/12 08:50:48;;;;;;;4.80;3.80;;;27.10;36.80;;;;;;6243367;23;20436;-43
2022/08/12 08:53:13;;;;;;;3.83;3.40;;;27.00;37.60;;;;;;6246040;23;20420;-42
2022/08/12 08:55:41;;;;;;;4.20;3.43;;;27.10;37.70;;;;;;6244245;23;20355;-40
2022/08/12 08:58:07;;;;;;;5.20;3.10;;;27.40;37.50;;;;;;6245839;23;20464;-41
2022/08/12 09:00:36;;;;;;;3.67;2.90;;;27.70;37.60;;;;;;6245126;23;20350;-40
2022/08/12 09:03:02;;;;;;;3.90;2.90;;;28.10;35.50;;;;;;6244270;23;20377;-41
2022/08/12 09:05:28;;;;;;;3.50;2.60;;;28.50;35.30;;;;;;6245397;23;20361;-43
2022/08/12 09:07:55;;;;;;;3.20;2.60;;;28.80;35.10;;;;;;6246861;23;20391;-40
2022/08/12 09:10:21;;;;;;;8.23;3.37;;;29.20;35.20;;;;;;6246161;23;20421;-41
2022/08/12 09:15:31;;;;;;;2.87;2.60;;;29.70;34.10;;;;;;6247421;23;20157;-41
2022/08/12 09:17:58;;;;;;;3.70;3.10;;;29.90;33.50;;;;;;6248411;23;20379;-41
2022/08/12 09:20:26;;;;;;;4.40;3.30;;;30.10;33.40;;;;;;6247396;23;20525;-40
2022/08/12 09:22:53;;;;;;;3.80;3.30;;;30.40;33.50;;;;;;6242938;23;20934;-42
2022/08/12 09:25:26;;;;;;;3.47;3.10;;;30.80;32.80;;;;;;6246253;23;20369;-40
2022/08/12 09:27:55;;;;;;;3.20;2.90;;;30.20;32.10;;;;;;6246973;23;20423;-40
2022/08/12 09:30:21;;;;;;;4.93;3.00;;;29.20;32.70;;;;;;6247063;23;20388;-42
2022/08/12 09:32:52;;;;;;;3.37;3.07;;;28.70;33.80;;;;;;6246568;23;20963;-42
2022/08/12 09:35:30;;;;;;;3.13;2.83;;;28.50;34.40;;;;;;6247292;23;20357;-41
2022/08/12 09:37:56;;;;;;;3.60;3.30;;;28.80;33.80;;;;;;6222197;23;20398;-41
2022/08/12 09:40:22;;;;;;;3.47;3.17;;;28.50;33.70;;;;;;6247956;23;20651;-41
2022/08/12 09:45:33;;;;;;;4.03;2.97;;;28.60;34.10;;;;;;6247489;23;20459;-41
2022/08/12 09:48:02;;;;;;;6.53;3.03;;;28.80;34.00;;;;;;6248891;23;20438;-41
2022/08/12 09:50:28;;;;;;;4.17;2.70;;;29.00;33.70;;;;;;6247969;23;20384;-40
2022/08/12 09:53:03;;;;;;;3.60;3.30;;;29.00;33.60;;;;;;6247757;23;20467;-42
2022/08/12 09:55:29;;;;;;;7.90;3.30;;;29.40;33.70;;;;;;6246588;23;20347;-41
2022/08/12 09:57:54;;;;;;;3.33;3.00;;;29.30;33.50;;;;;;6247174;23;20471;-41
2022/08/12 10:00:24;;;;;;;3.03;2.80;;;29.50;33.60;;;;;;6246865;23;20196;-40
2022/08/12 10:03:01;;;;;;;5.17;3.30;;;30.10;33.50;;;;;;6247696;23;20582;-41
2022/08/12 10:05:32;;;;;;;3.70;3.03;;;30.70;32.80;;;;;;6245387;23;20340;-40
2022/08/12 10:07:58;;;;;;;3.37;3.07;;;30.90;32.10;;;;;;6248325;23;20469;-44
2022/08/12 10:10:24;;;;;;;4.20;3.70;;;30.90;31.90;;;;;;6247418;23;20767;-42
2022/08/12 10:15:43;;;;;;;3.03;2.80;;;30.70;32.80;;;;;;6224093;23;20166;-41
2022/08/12 10:18:10;;;;;;;7.17;3.30;;;31.40;32.50;;;;;;6246463;23;20355;-41
2022/08/12 10:20:37;;;;;;;2.83;2.23;;;31.90;32.20;;;;;;6246112;23;20334;-40
2022/08/12 10:23:04;;;;;;;3.00;2.80;;;32.40;31.70;;;;;;6244605;23;20422;-41
2022/08/12 10:30:57;;;;;;;4.43;3.67;;;33.70;30.30;;;;;;6244352;23;20342;-41
2022/08/12 10:33:24;;;;;;;3.47;3.07;;;34.00;30.10;;;;;;6244210;23;20410;-44
2022/08/12 10:35:52;;;;;;;3.50;3.20;;;34.10;30.10;;;;;;6242982;23;20534;-43
2022/08/12 10:38:18;;;;;;;3.30;3.00;;;34.50;30.20;;;;;;6241790;23;20356;-43
2022/08/12 10:43:41;;;;;;;3.37;3.00;;;34.50;29.60;;;;;;6246573;23;20361;-41
2022/08/12 10:46:16;;;;;;;4.57;3.30;;;34.60;29.80;;;;;;6243932;23;20391;-41
2022/08/12 10:48:46;;;;;;;3.00;2.70;;;35.00;29.20;;;;;;6242862;23;20359;-41
2022/08/12 10:51:13;;;;;;;4.13;3.43;;;35.30;28.10;;;;;;6240333;23;20625;-42
2022/08/12 10:53:40;;;;;;;3.93;3.13;;;34.40;28.00;;;;;;6242298;23;20394;-41
2022/08/12 10:56:06;;;;;;;3.23;2.80;;;33.70;28.50;;;;;;6244508;23;20356;-42
2022/08/12 10:58:35;;;;;;;5.43;3.40;;;33.40;28.80;;;;;;6245305;23;20415;-43
2022/08/12 11:01:04;;;;;;;3.27;2.97;;;33.30;29.40;;;;;;6244705;23;20356;-42
2022/08/12 11:03:36;;;;;;;3.80;3.00;;;33.30;29.10;;;;;;6244139;23;20391;-41
2022/08/12 11:06:03;;;;;;;3.00;2.80;;;32.70;29.10;;;;;;6247692;23;20365;-41
2022/08/12 11:08:28;;;;;;;4.93;2.80;;;32.40;29.70;;;;;;6248097;23;20362;-41
2022/08/12 11:10:54;;;;;;;3.70;2.77;;;32.00;29.80;;;;;;6247183;23;20374;-41
2022/08/12 11:13:20;;;;;;;2.80;2.60;;;31.60;30.00;;;;;;6248348;23;20246;-42
2022/08/12 11:15:45;;;;;;;4.60;3.23;;;31.00;30.30;;;;;;6247034;23;20145;-47
2022/08/12 11:18:11;;;;;;;3.20;2.87;;;30.80;31.20;;;;;;6246527;22;20373;-41
2022/08/12 11:20:37;;;;;;;3.40;3.10;;;31.00;31.70;;;;;;6247440;23;20191;-43
2022/08/12 11:23:03;;;;;;;3.70;2.67;;;31.50;31.40;;;;;;6245207;23;20388;-41
2022/08/12 11:25:29;;;;;;;3.00;2.80;;;32.20;31.30;;;;;;6246072;23;20441;-42
2022/08/12 11:27:54;;;;;;;4.03;3.30;;;32.80;29.90;;;;;;6245949;23;20581;-39
2022/08/12 11:30:20;;;;;;;3.40;3.10;;;32.80;29.60;;;;;;6246515;23;20285;-41
2022/08/12 11:32:46;;;;;;;3.00;2.80;;;32.70;29.20;;;;;;6247062;23;20223;-43
2022/08/12 11:35:11;;;;;;;3.20;2.90;;;32.70;30.00;;;;;;6248476;23;20150;-43
2022/08/12 11:37:38;;;;;;;4.67;3.50;;;32.90;29.40;;;;;;6248436;23;20152;-42
2022/08/12 11:40:05;;;;;;;3.70;3.40;;;33.00;29.40;;;;;;6246165;23;20157;-41
2022/08/12 11:42:32;;;;;;;3.30;3.00;;;33.60;29.30;;;;;;6245993;22;20366;-41
2022/08/12 11:44:57;;;;;;;6.00;3.20;;;33.40;28.80;;;;;;6246147;23;20362;-41
2022/08/12 11:47:23;;;;;;;5.33;2.80;;;32.80;29.10;;;;;;6247840;23;20397;-42
2022/08/12 11:49:50;;;;;;;4.20;3.10;;;32.60;30.10;;;;;;6247798;23;20145;-43
2022/08/12 11:52:16;;;;;;;3.20;2.53;;;33.50;30.00;;;;;;6248293;23;20211;-41
2022/08/12 11:54:41;;;;;;;3.20;2.90;;;34.50;29.40;;;;;;6246791;23;20335;-43
2022/08/12 11:57:07;;;;;;;3.13;2.70;;;35.10;28.90;;;;;;6249423;23;20560;-42
2022/08/12 11:59:33;;;;;;;3.60;2.87;;;35.20;28.60;;;;;;6246625;23;20149;-41
2022/08/12 12:01:59;;;;;;;2.90;2.70;;;35.00;28.30;;;;;;6245755;23;20156;-41
2022/08/12 12:04:25;;;;;;;3.47;2.67;;;35.00;28.60;;;;;;6246362;23;20161;-50
2022/08/12 12:06:50;;;;;;;3.50;2.97;;;35.60;28.20;;;;;;6246854;23;20641;-41
2022/08/12 12:09:16;;;;;;;3.00;2.80;;;35.90;28.10;;;;;;6245257;23;20170;-41
2022/08/12 12:11:42;;;;;;;4.07;2.33;;;36.10;27.30;;;;;;6243407;23;20165;-40
2022/08/12 12:14:08;;;;;;;2.70;2.50;;;35.60;27.20;;;;;;6244390;23;20131;-42
2022/08/12 12:16:34;;;;;;;3.83;2.50;;;35.20;27.60;;;;;;6244886;23;20334;-42
2022/08/12 12:19:00;;;;;;;3.30;2.57;;;35.50;28.00;;;;;;6245272;23;20361;-42
2022/08/12 12:21:26;;;;;;;2.80;2.60;;;35.90;28.00;;;;;;6244244;23;20712;-42
2022/08/12 12:23:53;;;;;;;2.67;2.47;;;36.10;27.70;;;;;;6243939;23;20142;-41
2022/08/12 12:26:18;;;;;;;3.03;2.73;;;36.20;27.00;;;;;;6245601;23;20152;-40
2022/08/12 12:28:44;;;;;;;2.97;2.53;;;35.90;27.10;;;;;;6247136;23;20351;-41
2022/08/12 12:31:10;;;;;;;3.33;2.60;;;35.30;27.60;;;;;;6245732;23;20430;-41
2022/08/12 12:33:36;;;;;;;3.50;2.87;;;34.90;27.50;;;;;;6244599;23;20436;-41
2022/08/12 12:36:01;;;;;;;3.93;3.07;;;34.80;28.40;;;;;;6247364;23;20142;-40
2022/08/12 12:38:27;;;;;;;3.07;2.77;;;34.70;27.40;;;;;;6243443;23;20474;-42
2022/08/12 12:40:53;;;;;;;3.20;2.90;;;34.70;28.10;;;;;;6247058;23;20392;-40
2022/08/12 12:43:19;;;;;;;2.70;2.50;;;34.90;27.90;;;;;;6247483;23;20174;-42
2022/08/12 12:45:45;;;;;;;3.60;3.30;;;35.60;28.60;;;;;;6248692;23;20136;-41
2022/08/12 12:48:16;;;;;;;3.33;3.03;;;36.30;27.00;;;;;;6246998;23;20377;-41
2022/08/12 12:50:41;;;;;;;4.40;3.20;;;35.90;27.10;;;;;;6247632;22;20361;-41
2022/08/12 12:53:08;;;;;;;3.13;2.33;;;35.20;28.00;;;;;;6248267;23;20672;-42
2022/08/12 12:55:36;;;;;;;3.23;2.60;;;35.50;27.40;;;;;;6245816;23;20138;-42
2022/08/12 12:58:04;;;;;;;2.90;2.57;;;35.40;27.10;;;;;;6244991;23;20487;-41
2022/08/12 13:00:31;;;;;;;2.93;2.67;;;35.40;27.60;;;;;;6245350;23;20377;-42
2022/08/12 13:02:57;;;;;;;3.10;2.70;;;35.90;27.90;;;;;;6246171;23;20391;-43
2022/08/12 13:05:25;;;;;;;2.97;2.47;;;36.80;27.60;;;;;;6247660;23;20763;-42
2022/08/12 13:07:53;;;;;;;3.13;2.50;;;36.60;27.10;;;;;;6244664;23;20442;-41
2022/08/12 13:10:20;;;;;;;2.77;2.57;;;36.30;27.30;;;;;;6247204;23;20354;-42
2022/08/12 13:12:46;;;;;;;4.40;2.63;;;35.80;27.20;;;;;;6246981;22;20881;-41
2022/08/12 13:15:15;;;;;;;3.27;2.83;;;35.80;27.80;;;;;;6247714;23;20349;-42
2022/08/12 13:17:54;;;;;;;4.23;2.90;;;36.00;27.90;;;;;;6246234;23;20463;-44
2022/08/12 13:20:20;;;;;;;3.60;3.30;;;35.80;27.50;;;;;;6244880;23;20391;-41
2022/08/12 13:22:46;;;;;;;2.60;2.37;;;35.10;28.20;;;;;;6244057;23;20384;-43
2022/08/12 13:25:18;;;;;;;3.40;2.90;;;34.50;28.40;;;;;;6244270;23;20412;-41
2022/08/12 13:27:46;;;;;;;3.90;3.60;;;34.00;28.70;;;;;;6245383;23;20355;-44
2022/08/12 13:30:20;;;;;;;3.10;2.90;;;33.50;28.90;;;;;;6246123;23;20338;-41
2022/08/12 13:32:53;;;;;;;3.40;3.00;;;33.00;29.20;;;;;;6247562;23;20428;-43
2022/08/12 13:35:19;;;;;;;3.30;3.00;;;32.60;29.30;;;;;;6247073;23;21047;-41
2022/08/12 13:37:55;;;;;;;6.90;3.10;;;32.30;30.00;;;;;;6245672;23;20478;-42
2022/08/12 13:40:28;;;;;;;3.23;2.87;;;33.00;29.80;;;;;;6245879;23;20368;-41
2022/08/12 13:42:56;;;;;;;3.43;3.13;;;33.10;28.60;;;;;;6246098;23;20793;-44
2022/08/12 13:45:24;;;;;;;4.10;3.30;;;32.80;28.90;;;;;;6246073;23;20609;-41
2022/08/12 13:47:54;;;;;;;3.53;3.27;;;32.60;29.50;;;;;;6246267;23;20362;-40
2022/08/12 13:50:35;;;;;;;3.17;2.87;;;33.20;30.10;;;;;;6247617;23;20338;-41
2022/08/12 13:53:11;;;;;;;3.70;3.03;;;34.30;29.80;;;;;;6246662;23;20416;-43
2022/08/12 13:55:38;;;;;;;3.03;2.83;;;35.40;28.10;;;;;;6248163;23;20368;-42
2022/08/12 13:58:05;;;;;;;3.63;2.87;;;35.90;28.00;;;;;;6248776;23;20696;-41
2022/08/12 14:00:33;;;;;;;3.90;3.23;;;36.50;27.30;;;;;;6247398;23;20368;-41
2022/08/12 14:02:59;;;;;;;3.77;2.97;;;36.10;27.40;;;;;;6247418;23;20389;-40
2022/08/12 14:05:26;;;;;;;6.17;2.87;;;35.90;28.10;;;;;;6244832;23;20373;-41
2022/08/12 14:07:54;;;;;;;3.07;2.77;;;36.00;28.00;;;;;;6246765;23;20839;-41
2022/08/12 14:10:40;;;;;;;3.43;2.83;;;35.80;28.00;;;;;;6245374;23;20466;-42
2022/08/12 14:13:14;;;;;;;2.87;2.67;;;35.50;28.10;;;;;;6244777;23;20860;-44
2022/08/12 14:16:11;;;;;;;2.83;2.50;;;35.50;27.80;;;;;;6247977;22;20335;-42
2022/08/12 14:18:41;;;;;;;2.77;2.27;;;35.90;27.90;;;;;;6245842;23;20374;-42
2022/08/12 14:21:09;;;;;;;3.63;2.63;;;36.40;27.70;;;;;;6246727;23;20377;-41
2022/08/12 14:23:43;;;;;;;2.80;2.43;;;36.90;27.40;;;;;;6246398;23;20408;-41
2022/08/12 14:26:16;;;;;;;3.10;2.80;;;37.40;26.60;;;;;;6246011;23;20434;-42
2022/08/12 14:28:42;;;;;;;2.77;2.47;;;37.50;26.60;;;;;;6247210;23;20386;-44
2022/08/12 14:31:10;;;;;;;2.63;2.43;;;37.10;26.70;;;;;;6247280;23;20340;-42
2022/08/12 14:33:40;;;;;;;3.17;2.87;;;36.90;26.10;;;;;;6245382;23;20432;-41
2022/08/12 14:36:08;;;;;;;3.60;2.80;;;37.00;26.50;;;;;;6244484;23;20377;-43
2022/08/12 14:38:39;;;;;;;3.23;2.70;;;37.00;26.90;;;;;;6245935;23;20393;-43
2022/08/12 14:41:07;;;;;;;3.60;3.00;;;37.30;26.90;;;;;;6246382;23;20366;-42
2022/08/12 14:43:36;;;;;;;3.87;3.00;;;37.60;26.30;;;;;;6248563;23;20522;-42